sensor_id;sensor_type;location;lat;lon;timestamp;P1;durP1;ratioP1;P2;durP2;ratioP2
21101;SDS011;10709;49.006;12.100;2023-07-31T00:07:54;4.35;;;2.00;;
21101;SDS011;10709;49.006;12.100;2023-07-31T00:19:35;3.55;;;1.58;;
21101;SDS011;10709;49.006;12.100;2023-07-31T00:27:18;5.03;;;1.88;;
21101;SDS011;10709;49.006;12.100;2023-07-31T00:31:22;4.07;;;1.88;;
21101;SDS011;10709;49.006;12.100;2023-07-31T00:35:33;2.35;;;1.60;;
21101;SDS011;10709;49.006;12.100;2023-07-31T00:43:26;3.03;;;1.60;;
21101;SDS011;10709;49.006;12.100;2023-07-31T00:51:19;3.10;;;1.50;;
21101;SDS011;10709;49.006;12.100;2023-07-31T01:02:49;3.40;;;1.88;;
21101;SDS011;10709;49.006;12.100;2023-07-31T01:13:28;2.70;;;1.77;;
21101;SDS011;10709;49.006;12.100;2023-07-31T01:16:41;3.70;;;2.20;;
21101;SDS011;10709;49.006;12.100;2023-07-31T01:20:10;3.55;;;1.80;;
21101;SDS011;10709;49.006;12.100;2023-07-31T01:27:53;3.88;;;2.15;;
21101;SDS011;10709;49.006;12.100;2023-07-31T01:31:37;5.90;;;1.90;;
21101;SDS011;10709;49.006;12.100;2023-07-31T01:35:27;4.03;;;2.15;;
21101;SDS011;10709;49.006;12.100;2023-07-31T01:39:30;4.85;;;2.13;;
21101;SDS011;10709;49.006;12.100;2023-07-31T01:51:02;4.20;;;1.80;;
21101;SDS011;10709;49.006;12.100;2023-07-31T01:54:39;3.17;;;2.08;;
21101;SDS011;10709;49.006;12.100;2023-07-31T02:02:04;3.47;;;1.77;;
21101;SDS011;10709;49.006;12.100;2023-07-31T02:05:57;3.03;;;1.90;;
21101;SDS011;10709;49.006;12.100;2023-07-31T02:13:25;4.28;;;1.85;;
21101;SDS011;10709;49.006;12.100;2023-07-31T02:21:20;3.90;;;1.80;;
21101;SDS011;10709;49.006;12.100;2023-07-31T02:29:14;3.25;;;1.90;;
21101;SDS011;10709;49.006;12.100;2023-07-31T02:33:16;4.47;;;1.90;;
21101;SDS011;10709;49.006;12.100;2023-07-31T02:35:43;3.55;;;1.95;;
21101;SDS011;10709;49.006;12.100;2023-07-31T02:38:09;3.53;;;1.93;;
21101;SDS011;10709;49.006;12.100;2023-07-31T02:40:36;3.00;;;1.95;;
21101;SDS011;10709;49.006;12.100;2023-07-31T02:43:02;5.70;;;2.30;;
21101;SDS011;10709;49.006;12.100;2023-07-31T02:45:29;3.70;;;2.08;;
21101;SDS011;10709;49.006;12.100;2023-07-31T02:47:55;3.35;;;1.90;;
21101;SDS011;10709;49.006;12.100;2023-07-31T02:50:22;6.07;;;2.15;;
21101;SDS011;10709;49.006;12.100;2023-07-31T02:52:48;4.05;;;2.25;;
21101;SDS011;10709;49.006;12.100;2023-07-31T02:55:15;4.25;;;2.13;;
21101;SDS011;10709;49.006;12.100;2023-07-31T02:57:42;5.22;;;2.33;;
21101;SDS011;10709;49.006;12.100;2023-07-31T03:00:08;5.60;;;2.20;;
21101;SDS011;10709;49.006;12.100;2023-07-31T03:02:35;4.53;;;2.40;;
21101;SDS011;10709;49.006;12.100;2023-07-31T03:05:02;4.47;;;2.13;;
21101;SDS011;10709;49.006;12.100;2023-07-31T03:07:29;3.50;;;2.00;;
21101;SDS011;10709;49.006;12.100;2023-07-31T03:09:56;3.92;;;2.10;;
21101;SDS011;10709;49.006;12.100;2023-07-31T03:12:23;4.35;;;2.10;;
21101;SDS011;10709;49.006;12.100;2023-07-31T03:14:49;5.15;;;2.13;;
21101;SDS011;10709;49.006;12.100;2023-07-31T03:17:16;6.65;;;2.40;;
21101;SDS011;10709;49.006;12.100;2023-07-31T03:19:42;5.25;;;2.33;;
21101;SDS011;10709;49.006;12.100;2023-07-31T03:22:09;6.05;;;2.03;;
21101;SDS011;10709;49.006;12.100;2023-07-31T03:24:35;3.33;;;1.92;;
21101;SDS011;10709;49.006;12.100;2023-07-31T03:27:02;4.13;;;2.05;;
21101;SDS011;10709;49.006;12.100;2023-07-31T03:29:29;3.92;;;2.00;;
21101;SDS011;10709;49.006;12.100;2023-07-31T03:31:55;4.80;;;2.17;;
21101;SDS011;10709;49.006;12.100;2023-07-31T03:34:22;5.80;;;2.17;;
21101;SDS011;10709;49.006;12.100;2023-07-31T03:36:48;4.18;;;2.33;;
21101;SDS011;10709;49.006;12.100;2023-07-31T03:39:15;4.20;;;2.00;;
21101;SDS011;10709;49.006;12.100;2023-07-31T03:41:41;5.80;;;2.30;;
21101;SDS011;10709;49.006;12.100;2023-07-31T03:44:08;5.55;;;1.88;;
21101;SDS011;10709;49.006;12.100;2023-07-31T03:46:34;2.45;;;1.70;;
21101;SDS011;10709;49.006;12.100;2023-07-31T03:49:02;5.32;;;2.22;;
21101;SDS011;10709;49.006;12.100;2023-07-31T03:51:29;3.45;;;2.05;;
21101;SDS011;10709;49.006;12.100;2023-07-31T03:53:58;2.63;;;1.77;;
21101;SDS011;10709;49.006;12.100;2023-07-31T03:56:28;4.05;;;2.22;;
21101;SDS011;10709;49.006;12.100;2023-07-31T03:58:54;3.92;;;1.83;;
21101;SDS011;10709;49.006;12.100;2023-07-31T04:01:21;5.22;;;1.95;;
21101;SDS011;10709;49.006;12.100;2023-07-31T04:03:47;3.42;;;2.00;;
21101;SDS011;10709;49.006;12.100;2023-07-31T04:06:14;4.00;;;2.30;;
21101;SDS011;10709;49.006;12.100;2023-07-31T04:08:44;3.50;;;2.00;;
21101;SDS011;10709;49.006;12.100;2023-07-31T04:11:11;4.93;;;2.20;;
21101;SDS011;10709;49.006;12.100;2023-07-31T04:13:38;5.20;;;2.30;;
21101;SDS011;10709;49.006;12.100;2023-07-31T04:16:05;5.57;;;2.40;;
21101;SDS011;10709;49.006;12.100;2023-07-31T04:18:33;6.38;;;2.20;;
21101;SDS011;10709;49.006;12.100;2023-07-31T04:20:59;5.27;;;2.50;;
21101;SDS011;10709;49.006;12.100;2023-07-31T04:23:27;3.47;;;2.15;;
21101;SDS011;10709;49.006;12.100;2023-07-31T04:25:54;4.05;;;2.20;;
21101;SDS011;10709;49.006;12.100;2023-07-31T04:28:21;4.78;;;2.20;;
21101;SDS011;10709;49.006;12.100;2023-07-31T04:30:48;4.57;;;2.28;;
21101;SDS011;10709;49.006;12.100;2023-07-31T04:33:16;2.92;;;2.05;;
21101;SDS011;10709;49.006;12.100;2023-07-31T04:35:48;4.05;;;2.30;;
21101;SDS011;10709;49.006;12.100;2023-07-31T04:38:21;4.68;;;2.03;;
21101;SDS011;10709;49.006;12.100;2023-07-31T04:40:48;4.65;;;2.10;;
21101;SDS011;10709;49.006;12.100;2023-07-31T04:43:15;3.05;;;2.28;;
21101;SDS011;10709;49.006;12.100;2023-07-31T04:45:42;4.00;;;2.13;;
21101;SDS011;10709;49.006;12.100;2023-07-31T04:48:11;4.43;;;2.30;;
21101;SDS011;10709;49.006;12.100;2023-07-31T04:50:38;3.33;;;2.03;;
21101;SDS011;10709;49.006;12.100;2023-07-31T04:53:05;4.68;;;2.25;;
21101;SDS011;10709;49.006;12.100;2023-07-31T04:55:31;4.35;;;2.28;;
21101;SDS011;10709;49.006;12.100;2023-07-31T04:58:01;5.90;;;2.22;;
21101;SDS011;10709;49.006;12.100;2023-07-31T05:00:27;4.55;;;2.40;;
21101;SDS011;10709;49.006;12.100;2023-07-31T05:02:54;3.80;;;2.10;;
21101;SDS011;10709;49.006;12.100;2023-07-31T05:05:20;3.28;;;2.30;;
21101;SDS011;10709;49.006;12.100;2023-07-31T05:07:47;5.40;;;2.20;;
21101;SDS011;10709;49.006;12.100;2023-07-31T05:10:14;5.18;;;2.10;;
21101;SDS011;10709;49.006;12.100;2023-07-31T05:12:40;3.50;;;1.92;;
21101;SDS011;10709;49.006;12.100;2023-07-31T05:15:07;4.28;;;2.05;;
21101;SDS011;10709;49.006;12.100;2023-07-31T05:17:36;6.25;;;2.47;;
21101;SDS011;10709;49.006;12.100;2023-07-31T05:20:03;4.63;;;2.15;;
21101;SDS011;10709;49.006;12.100;2023-07-31T05:22:30;4.35;;;2.28;;
21101;SDS011;10709;49.006;12.100;2023-07-31T05:24:57;3.47;;;2.15;;
21101;SDS011;10709;49.006;12.100;2023-07-31T05:27:23;5.57;;;2.30;;
21101;SDS011;10709;49.006;12.100;2023-07-31T05:29:49;4.07;;;2.10;;
21101;SDS011;10709;49.006;12.100;2023-07-31T05:32:16;3.33;;;2.03;;
21101;SDS011;10709;49.006;12.100;2023-07-31T05:34:43;4.18;;;2.00;;
21101;SDS011;10709;49.006;12.100;2023-07-31T05:37:10;4.05;;;1.95;;
21101;SDS011;10709;49.006;12.100;2023-07-31T05:39:37;4.82;;;2.25;;
21101;SDS011;10709;49.006;12.100;2023-07-31T05:42:04;4.45;;;2.22;;
21101;SDS011;10709;49.006;12.100;2023-07-31T05:44:31;3.97;;;2.30;;
21101;SDS011;10709;49.006;12.100;2023-07-31T05:46:57;4.65;;;2.30;;
21101;SDS011;10709;49.006;12.100;2023-07-31T05:49:24;4.85;;;2.30;;
21101;SDS011;10709;49.006;12.100;2023-07-31T05:51:50;6.88;;;2.15;;
21101;SDS011;10709;49.006;12.100;2023-07-31T05:54:17;3.30;;;2.00;;
21101;SDS011;10709;49.006;12.100;2023-07-31T05:56:43;7.63;;;2.40;;
21101;SDS011;10709;49.006;12.100;2023-07-31T05:59:11;4.43;;;2.10;;
21101;SDS011;10709;49.006;12.100;2023-07-31T06:01:39;5.70;;;2.00;;
21101;SDS011;10709;49.006;12.100;2023-07-31T06:04:05;3.92;;;2.03;;
21101;SDS011;10709;49.006;12.100;2023-07-31T06:06:32;5.03;;;2.13;;
21101;SDS011;10709;49.006;12.100;2023-07-31T06:08:59;4.72;;;2.30;;
21101;SDS011;10709;49.006;12.100;2023-07-31T06:11:27;3.65;;;2.30;;
21101;SDS011;10709;49.006;12.100;2023-07-31T06:13:54;6.57;;;2.60;;
21101;SDS011;10709;49.006;12.100;2023-07-31T06:16:21;4.10;;;2.22;;
21101;SDS011;10709;49.006;12.100;2023-07-31T06:18:48;3.63;;;2.20;;
21101;SDS011;10709;49.006;12.100;2023-07-31T06:21:14;4.63;;;2.28;;
21101;SDS011;10709;49.006;12.100;2023-07-31T06:23:41;3.42;;;2.30;;
21101;SDS011;10709;49.006;12.100;2023-07-31T06:26:07;5.10;;;2.20;;
21101;SDS011;10709;49.006;12.100;2023-07-31T06:28:34;5.30;;;2.30;;
21101;SDS011;10709;49.006;12.100;2023-07-31T06:31:01;3.65;;;2.10;;
21101;SDS011;10709;49.006;12.100;2023-07-31T06:33:28;4.45;;;2.25;;
21101;SDS011;10709;49.006;12.100;2023-07-31T06:35:55;4.78;;;2.33;;
21101;SDS011;10709;49.006;12.100;2023-07-31T06:38:25;4.72;;;2.00;;
21101;SDS011;10709;49.006;12.100;2023-07-31T06:40:53;4.47;;;2.40;;
21101;SDS011;10709;49.006;12.100;2023-07-31T06:43:20;4.80;;;2.45;;
21101;SDS011;10709;49.006;12.100;2023-07-31T06:45:46;5.00;;;2.20;;
21101;SDS011;10709;49.006;12.100;2023-07-31T06:48:14;3.83;;;1.90;;
21101;SDS011;10709;49.006;12.100;2023-07-31T06:50:41;3.20;;;2.15;;
21101;SDS011;10709;49.006;12.100;2023-07-31T06:53:07;4.40;;;2.22;;
21101;SDS011;10709;49.006;12.100;2023-07-31T06:55:34;3.67;;;2.05;;
21101;SDS011;10709;49.006;12.100;2023-07-31T06:58:01;4.88;;;2.30;;
21101;SDS011;10709;49.006;12.100;2023-07-31T07:00:27;3.08;;;2.10;;
21101;SDS011;10709;49.006;12.100;2023-07-31T07:02:54;5.07;;;2.15;;
21101;SDS011;10709;49.006;12.100;2023-07-31T07:05:22;4.07;;;2.03;;
21101;SDS011;10709;49.006;12.100;2023-07-31T07:07:50;4.07;;;1.95;;
21101;SDS011;10709;49.006;12.100;2023-07-31T07:10:22;6.85;;;2.13;;
21101;SDS011;10709;49.006;12.100;2023-07-31T07:13:02;3.92;;;2.20;;
21101;SDS011;10709;49.006;12.100;2023-07-31T07:15:28;5.65;;;2.30;;
21101;SDS011;10709;49.006;12.100;2023-07-31T07:17:55;5.63;;;2.30;;
21101;SDS011;10709;49.006;12.100;2023-07-31T07:20:22;6.35;;;2.13;;
21101;SDS011;10709;49.006;12.100;2023-07-31T07:22:48;4.35;;;2.20;;
21101;SDS011;10709;49.006;12.100;2023-07-31T07:25:15;3.83;;;2.20;;
21101;SDS011;10709;49.006;12.100;2023-07-31T07:27:42;5.07;;;2.30;;
21101;SDS011;10709;49.006;12.100;2023-07-31T07:30:09;3.05;;;2.08;;
21101;SDS011;10709;49.006;12.100;2023-07-31T07:32:36;4.13;;;1.80;;
21101;SDS011;10709;49.006;12.100;2023-07-31T07:35:02;4.05;;;2.03;;
21101;SDS011;10709;49.006;12.100;2023-07-31T07:37:29;3.75;;;2.15;;
21101;SDS011;10709;49.006;12.100;2023-07-31T07:39:57;5.03;;;2.13;;
21101;SDS011;10709;49.006;12.100;2023-07-31T07:42:25;6.72;;;2.13;;
21101;SDS011;10709;49.006;12.100;2023-07-31T07:44:52;6.85;;;2.13;;
21101;SDS011;10709;49.006;12.100;2023-07-31T07:47:19;5.70;;;2.08;;
21101;SDS011;10709;49.006;12.100;2023-07-31T07:49:45;3.65;;;2.20;;
21101;SDS011;10709;49.006;12.100;2023-07-31T07:52:18;6.50;;;2.10;;
21101;SDS011;10709;49.006;12.100;2023-07-31T07:54:45;3.65;;;2.22;;
21101;SDS011;10709;49.006;12.100;2023-07-31T07:57:11;3.95;;;2.20;;
21101;SDS011;10709;49.006;12.100;2023-07-31T07:59:38;5.75;;;2.50;;
21101;SDS011;10709;49.006;12.100;2023-07-31T08:02:04;3.90;;;2.20;;
21101;SDS011;10709;49.006;12.100;2023-07-31T08:04:31;6.47;;;2.20;;
21101;SDS011;10709;49.006;12.100;2023-07-31T08:06:59;4.25;;;2.03;;
21101;SDS011;10709;49.006;12.100;2023-07-31T08:09:28;2.70;;;2.10;;
21101;SDS011;10709;49.006;12.100;2023-07-31T08:11:57;4.35;;;2.30;;
21101;SDS011;10709;49.006;12.100;2023-07-31T08:14:28;3.50;;;1.98;;
21101;SDS011;10709;49.006;12.100;2023-07-31T08:16:58;3.63;;;2.03;;
21101;SDS011;10709;49.006;12.100;2023-07-31T08:19:27;3.97;;;2.13;;
21101;SDS011;10709;49.006;12.100;2023-07-31T08:21:54;4.03;;;1.90;;
21101;SDS011;10709;49.006;12.100;2023-07-31T08:24:23;2.83;;;1.90;;
21101;SDS011;10709;49.006;12.100;2023-07-31T08:26:50;3.30;;;2.00;;
21101;SDS011;10709;49.006;12.100;2023-07-31T08:29:16;4.20;;;2.20;;
21101;SDS011;10709;49.006;12.100;2023-07-31T08:31:46;3.55;;;2.13;;
21101;SDS011;10709;49.006;12.100;2023-07-31T08:34:12;5.15;;;2.03;;
21101;SDS011;10709;49.006;12.100;2023-07-31T08:36:43;5.43;;;2.17;;
21101;SDS011;10709;49.006;12.100;2023-07-31T08:39:10;4.53;;;2.33;;
21101;SDS011;10709;49.006;12.100;2023-07-31T08:41:39;3.45;;;2.17;;
21101;SDS011;10709;49.006;12.100;2023-07-31T08:44:06;2.83;;;2.20;;
21101;SDS011;10709;49.006;12.100;2023-07-31T08:46:35;4.50;;;2.35;;
21101;SDS011;10709;49.006;12.100;2023-07-31T08:49:03;3.80;;;2.30;;
21101;SDS011;10709;49.006;12.100;2023-07-31T08:51:34;2.95;;;2.10;;
21101;SDS011;10709;49.006;12.100;2023-07-31T08:54:01;5.65;;;2.15;;
21101;SDS011;10709;49.006;12.100;2023-07-31T08:56:31;3.88;;;2.22;;
21101;SDS011;10709;49.006;12.100;2023-07-31T08:59:02;5.03;;;2.35;;
21101;SDS011;10709;49.006;12.100;2023-07-31T09:01:34;7.25;;;2.60;;
21101;SDS011;10709;49.006;12.100;2023-07-31T09:04:07;5.97;;;2.40;;
21101;SDS011;10709;49.006;12.100;2023-07-31T09:06:36;4.65;;;2.45;;
21101;SDS011;10709;49.006;12.100;2023-07-31T09:09:04;4.93;;;2.45;;
21101;SDS011;10709;49.006;12.100;2023-07-31T09:11:32;5.65;;;2.30;;
21101;SDS011;10709;49.006;12.100;2023-07-31T09:14:01;4.35;;;2.53;;
21101;SDS011;10709;49.006;12.100;2023-07-31T09:16:34;4.57;;;2.30;;
21101;SDS011;10709;49.006;12.100;2023-07-31T09:19:01;4.45;;;2.30;;
21101;SDS011;10709;49.006;12.100;2023-07-31T09:21:31;4.65;;;2.40;;
21101;SDS011;10709;49.006;12.100;2023-07-31T09:23:58;4.75;;;2.47;;
21101;SDS011;10709;49.006;12.100;2023-07-31T09:26:28;5.47;;;2.30;;
21101;SDS011;10709;49.006;12.100;2023-07-31T09:29:06;7.65;;;2.47;;
21101;SDS011;10709;49.006;12.100;2023-07-31T09:31:50;5.35;;;2.55;;
21101;SDS011;10709;49.006;12.100;2023-07-31T09:34:17;9.50;;;2.30;;
21101;SDS011;10709;49.006;12.100;2023-07-31T09:36:47;5.47;;;2.50;;
21101;SDS011;10709;49.006;12.100;2023-07-31T09:39:17;6.05;;;2.47;;
21101;SDS011;10709;49.006;12.100;2023-07-31T09:41:55;4.57;;;2.17;;
21101;SDS011;10709;49.006;12.100;2023-07-31T09:44:39;6.68;;;2.38;;
21101;SDS011;10709;49.006;12.100;2023-07-31T09:47:22;4.75;;;2.30;;
21101;SDS011;10709;49.006;12.100;2023-07-31T09:49:51;3.08;;;2.10;;
21101;SDS011;10709;49.006;12.100;2023-07-31T09:52:19;3.83;;;2.17;;
21101;SDS011;10709;49.006;12.100;2023-07-31T09:54:45;4.45;;;2.10;;
21101;SDS011;10709;49.006;12.100;2023-07-31T09:57:12;3.92;;;2.00;;
21101;SDS011;10709;49.006;12.100;2023-07-31T09:59:39;4.20;;;2.20;;
21101;SDS011;10709;49.006;12.100;2023-07-31T10:02:08;3.42;;;2.13;;
21101;SDS011;10709;49.006;12.100;2023-07-31T10:04:41;7.90;;;2.30;;
21101;SDS011;10709;49.006;12.100;2023-07-31T10:07:12;7.55;;;2.35;;
21101;SDS011;10709;49.006;12.100;2023-07-31T10:09:40;3.38;;;2.17;;
21101;SDS011;10709;49.006;12.100;2023-07-31T10:12:08;5.43;;;2.10;;
21101;SDS011;10709;49.006;12.100;2023-07-31T10:14:41;4.32;;;1.98;;
21101;SDS011;10709;49.006;12.100;2023-07-31T10:17:08;3.13;;;2.00;;
21101;SDS011;10709;49.006;12.100;2023-07-31T10:19:37;3.80;;;2.35;;
21101;SDS011;10709;49.006;12.100;2023-07-31T10:22:05;4.13;;;2.03;;
21101;SDS011;10709;49.006;12.100;2023-07-31T10:24:32;5.55;;;1.90;;
21101;SDS011;10709;49.006;12.100;2023-07-31T10:27:00;3.65;;;1.83;;
21101;SDS011;10709;49.006;12.100;2023-07-31T10:29:28;5.35;;;1.90;;
21101;SDS011;10709;49.006;12.100;2023-07-31T10:31:57;4.18;;;2.00;;
21101;SDS011;10709;49.006;12.100;2023-07-31T10:34:24;3.60;;;2.10;;
21101;SDS011;10709;49.006;12.100;2023-07-31T10:39:45;6.30;;;2.20;;
21101;SDS011;10709;49.006;12.100;2023-07-31T10:42:27;6.93;;;2.10;;
21101;SDS011;10709;49.006;12.100;2023-07-31T10:44:59;4.30;;;1.70;;
21101;SDS011;10709;49.006;12.100;2023-07-31T10:47:26;5.90;;;1.80;;
21101;SDS011;10709;49.006;12.100;2023-07-31T10:50:10;3.17;;;2.00;;
21101;SDS011;10709;49.006;12.100;2023-07-31T10:52:43;5.32;;;2.03;;
21101;SDS011;10709;49.006;12.100;2023-07-31T10:57:50;4.22;;;2.00;;
21101;SDS011;10709;49.006;12.100;2023-07-31T11:00:21;4.25;;;2.10;;
21101;SDS011;10709;49.006;12.100;2023-07-31T11:08:13;4.38;;;2.03;;
21101;SDS011;10709;49.006;12.100;2023-07-31T11:13:34;6.70;;;1.85;;
21101;SDS011;10709;49.006;12.100;2023-07-31T11:16:10;4.55;;;1.90;;
21101;SDS011;10709;49.006;12.100;2023-07-31T11:18:38;3.80;;;1.90;;
21101;SDS011;10709;49.006;12.100;2023-07-31T11:21:08;4.07;;;2.05;;
21101;SDS011;10709;49.006;12.100;2023-07-31T11:23:45;3.60;;;1.80;;
21101;SDS011;10709;49.006;12.100;2023-07-31T11:26:13;4.32;;;2.15;;
21101;SDS011;10709;49.006;12.100;2023-07-31T11:28:42;3.67;;;2.10;;
21101;SDS011;10709;49.006;12.100;2023-07-31T11:31:09;2.65;;;1.90;;
21101;SDS011;10709;49.006;12.100;2023-07-31T11:33:37;4.53;;;2.10;;
21101;SDS011;10709;49.006;12.100;2023-07-31T11:36:04;4.47;;;2.10;;
21101;SDS011;10709;49.006;12.100;2023-07-31T11:38:31;3.58;;;1.90;;
21101;SDS011;10709;49.006;12.100;2023-07-31T11:41:00;3.85;;;2.03;;
21101;SDS011;10709;49.006;12.100;2023-07-31T11:43:30;4.03;;;2.25;;
21101;SDS011;10709;49.006;12.100;2023-07-31T11:45:59;3.60;;;1.90;;
21101;SDS011;10709;49.006;12.100;2023-07-31T11:48:30;3.50;;;2.00;;
21101;SDS011;10709;49.006;12.100;2023-07-31T11:51:10;4.43;;;1.77;;
21101;SDS011;10709;49.006;12.100;2023-07-31T11:56:19;4.68;;;1.95;;
21101;SDS011;10709;49.006;12.100;2023-07-31T11:58:52;5.95;;;2.17;;
21101;SDS011;10709;49.006;12.100;2023-07-31T12:01:23;3.45;;;1.70;;
21101;SDS011;10709;49.006;12.100;2023-07-31T12:03:51;4.93;;;1.95;;
21101;SDS011;10709;49.006;12.100;2023-07-31T12:06:19;3.42;;;2.17;;
21101;SDS011;10709;49.006;12.100;2023-07-31T12:08:47;5.20;;;2.10;;
21101;SDS011;10709;49.006;12.100;2023-07-31T12:11:15;2.58;;;1.80;;
21101;SDS011;10709;49.006;12.100;2023-07-31T12:13:45;4.53;;;2.00;;
21101;SDS011;10709;49.006;12.100;2023-07-31T12:16:12;4.50;;;2.30;;
21101;SDS011;10709;49.006;12.100;2023-07-31T12:18:38;4.68;;;1.80;;
21101;SDS011;10709;49.006;12.100;2023-07-31T12:21:07;5.25;;;2.10;;
21101;SDS011;10709;49.006;12.100;2023-07-31T12:23:36;5.03;;;2.00;;
21101;SDS011;10709;49.006;12.100;2023-07-31T12:26:07;3.03;;;1.90;;
21101;SDS011;10709;49.006;12.100;2023-07-31T12:28:46;3.00;;;1.88;;
21101;SDS011;10709;49.006;12.100;2023-07-31T12:31:18;3.60;;;2.10;;
21101;SDS011;10709;49.006;12.100;2023-07-31T12:33:48;3.15;;;2.08;;
21101;SDS011;10709;49.006;12.100;2023-07-31T12:36:21;3.53;;;2.00;;
21101;SDS011;10709;49.006;12.100;2023-07-31T12:38:50;4.28;;;1.80;;
21101;SDS011;10709;49.006;12.100;2023-07-31T12:41:18;4.22;;;1.90;;
21101;SDS011;10709;49.006;12.100;2023-07-31T12:43:45;5.15;;;2.15;;
21101;SDS011;10709;49.006;12.100;2023-07-31T12:46:12;2.67;;;1.95;;
21101;SDS011;10709;49.006;12.100;2023-07-31T12:48:40;2.80;;;1.90;;
21101;SDS011;10709;49.006;12.100;2023-07-31T12:51:07;3.95;;;2.00;;
21101;SDS011;10709;49.006;12.100;2023-07-31T12:53:35;3.78;;;2.33;;
21101;SDS011;10709;49.006;12.100;2023-07-31T12:56:01;6.22;;;2.35;;
21101;SDS011;10709;49.006;12.100;2023-07-31T12:58:28;3.28;;;2.10;;
21101;SDS011;10709;49.006;12.100;2023-07-31T13:00:55;3.78;;;2.15;;
21101;SDS011;10709;49.006;12.100;2023-07-31T13:03:21;4.13;;;2.30;;
21101;SDS011;10709;49.006;12.100;2023-07-31T13:05:48;4.82;;;2.20;;
21101;SDS011;10709;49.006;12.100;2023-07-31T13:08:16;3.13;;;1.92;;
21101;SDS011;10709;49.006;12.100;2023-07-31T13:10:44;2.53;;;1.90;;
21101;SDS011;10709;49.006;12.100;2023-07-31T13:13:10;3.47;;;1.90;;
21101;SDS011;10709;49.006;12.100;2023-07-31T13:15:37;4.03;;;2.22;;
21101;SDS011;10709;49.006;12.100;2023-07-31T13:18:03;3.35;;;2.10;;
21101;SDS011;10709;49.006;12.100;2023-07-31T13:20:30;4.95;;;2.00;;
21101;SDS011;10709;49.006;12.100;2023-07-31T13:22:57;3.97;;;2.60;;
21101;SDS011;10709;49.006;12.100;2023-07-31T13:25:23;4.97;;;2.20;;
21101;SDS011;10709;49.006;12.100;2023-07-31T13:27:51;5.30;;;2.50;;
21101;SDS011;10709;49.006;12.100;2023-07-31T13:30:18;4.18;;;2.20;;
21101;SDS011;10709;49.006;12.100;2023-07-31T13:32:44;5.65;;;2.47;;
21101;SDS011;10709;49.006;12.100;2023-07-31T13:35:11;6.03;;;2.40;;
21101;SDS011;10709;49.006;12.100;2023-07-31T13:37:38;4.40;;;2.40;;
21101;SDS011;10709;49.006;12.100;2023-07-31T13:40:05;4.82;;;2.28;;
21101;SDS011;10709;49.006;12.100;2023-07-31T13:42:32;5.40;;;2.53;;
21101;SDS011;10709;49.006;12.100;2023-07-31T13:44:59;4.32;;;2.20;;
21101;SDS011;10709;49.006;12.100;2023-07-31T13:47:28;5.10;;;2.40;;
21101;SDS011;10709;49.006;12.100;2023-07-31T13:49:54;5.05;;;2.40;;
21101;SDS011;10709;49.006;12.100;2023-07-31T13:52:23;3.15;;;2.05;;
21101;SDS011;10709;49.006;12.100;2023-07-31T13:54:50;3.83;;;2.10;;
21101;SDS011;10709;49.006;12.100;2023-07-31T13:57:16;4.43;;;2.20;;
21101;SDS011;10709;49.006;12.100;2023-07-31T13:59:43;3.78;;;2.15;;
21101;SDS011;10709;49.006;12.100;2023-07-31T14:02:10;6.40;;;2.47;;
21101;SDS011;10709;49.006;12.100;2023-07-31T14:04:37;6.32;;;2.50;;
21101;SDS011;10709;49.006;12.100;2023-07-31T14:07:03;5.82;;;2.33;;
21101;SDS011;10709;49.006;12.100;2023-07-31T14:09:30;3.72;;;2.40;;
21101;SDS011;10709;49.006;12.100;2023-07-31T14:11:57;3.97;;;2.58;;
21101;SDS011;10709;49.006;12.100;2023-07-31T14:14:24;5.35;;;2.38;;
21101;SDS011;10709;49.006;12.100;2023-07-31T14:16:50;4.53;;;2.38;;
21101;SDS011;10709;49.006;12.100;2023-07-31T14:19:17;4.53;;;2.30;;
21101;SDS011;10709;49.006;12.100;2023-07-31T14:21:44;4.47;;;2.63;;
21101;SDS011;10709;49.006;12.100;2023-07-31T14:24:30;3.28;;;2.50;;
21101;SDS011;10709;49.006;12.100;2023-07-31T14:26:57;4.60;;;2.60;;
21101;SDS011;10709;49.006;12.100;2023-07-31T14:29:24;4.38;;;2.40;;
21101;SDS011;10709;49.006;12.100;2023-07-31T14:31:50;4.90;;;2.60;;
21101;SDS011;10709;49.006;12.100;2023-07-31T14:34:18;3.83;;;2.15;;
21101;SDS011;10709;49.006;12.100;2023-07-31T14:36:46;4.38;;;2.20;;
21101;SDS011;10709;49.006;12.100;2023-07-31T14:39:13;3.08;;;2.03;;
21101;SDS011;10709;49.006;12.100;2023-07-31T14:41:41;5.20;;;2.55;;
21101;SDS011;10709;49.006;12.100;2023-07-31T14:44:09;4.20;;;2.08;;
21101;SDS011;10709;49.006;12.100;2023-07-31T14:46:36;3.88;;;2.55;;
21101;SDS011;10709;49.006;12.100;2023-07-31T14:49:03;6.43;;;2.60;;
21101;SDS011;10709;49.006;12.100;2023-07-31T14:51:29;4.25;;;2.55;;
21101;SDS011;10709;49.006;12.100;2023-07-31T14:53:56;5.13;;;2.20;;
21101;SDS011;10709;49.006;12.100;2023-07-31T14:56:22;5.45;;;2.70;;
21101;SDS011;10709;49.006;12.100;2023-07-31T14:58:49;4.47;;;2.72;;
21101;SDS011;10709;49.006;12.100;2023-07-31T15:01:15;3.97;;;2.65;;
21101;SDS011;10709;49.006;12.100;2023-07-31T15:03:42;6.25;;;2.65;;
21101;SDS011;10709;49.006;12.100;2023-07-31T15:06:08;3.97;;;2.40;;
21101;SDS011;10709;49.006;12.100;2023-07-31T15:08:35;4.78;;;2.80;;
21101;SDS011;10709;49.006;12.100;2023-07-31T15:11:03;4.35;;;2.63;;
21101;SDS011;10709;49.006;12.100;2023-07-31T15:13:29;3.50;;;2.40;;
21101;SDS011;10709;49.006;12.100;2023-07-31T15:15:56;3.40;;;2.53;;
21101;SDS011;10709;49.006;12.100;2023-07-31T15:18:24;5.07;;;2.70;;
21101;SDS011;10709;49.006;12.100;2023-07-31T15:20:50;3.63;;;2.47;;
21101;SDS011;10709;49.006;12.100;2023-07-31T15:23:17;4.40;;;2.40;;
21101;SDS011;10709;49.006;12.100;2023-07-31T15:25:44;7.28;;;2.70;;
21101;SDS011;10709;49.006;12.100;2023-07-31T15:28:11;4.70;;;2.35;;
21101;SDS011;10709;49.006;12.100;2023-07-31T15:30:38;4.15;;;2.60;;
21101;SDS011;10709;49.006;12.100;2023-07-31T15:33:05;3.80;;;2.70;;
21101;SDS011;10709;49.006;12.100;2023-07-31T15:35:32;4.22;;;2.60;;
21101;SDS011;10709;49.006;12.100;2023-07-31T15:37:58;4.95;;;2.72;;
21101;SDS011;10709;49.006;12.100;2023-07-31T15:40:25;4.43;;;2.47;;
21101;SDS011;10709;49.006;12.100;2023-07-31T15:42:51;3.88;;;2.70;;
21101;SDS011;10709;49.006;12.100;2023-07-31T15:45:18;5.53;;;2.70;;
21101;SDS011;10709;49.006;12.100;2023-07-31T15:47:44;4.93;;;2.40;;
21101;SDS011;10709;49.006;12.100;2023-07-31T15:50:11;4.75;;;2.53;;
21101;SDS011;10709;49.006;12.100;2023-07-31T15:52:37;4.88;;;2.67;;
21101;SDS011;10709;49.006;12.100;2023-07-31T15:55:04;3.45;;;2.40;;
21101;SDS011;10709;49.006;12.100;2023-07-31T15:57:31;6.72;;;2.47;;
21101;SDS011;10709;49.006;12.100;2023-07-31T16:00:00;4.65;;;2.40;;
21101;SDS011;10709;49.006;12.100;2023-07-31T16:02:27;5.32;;;2.47;;
21101;SDS011;10709;49.006;12.100;2023-07-31T16:04:56;4.60;;;2.40;;
21101;SDS011;10709;49.006;12.100;2023-07-31T16:07:23;4.63;;;2.58;;
21101;SDS011;10709;49.006;12.100;2023-07-31T16:09:49;3.83;;;2.40;;
21101;SDS011;10709;49.006;12.100;2023-07-31T16:12:16;3.45;;;2.45;;
21101;SDS011;10709;49.006;12.100;2023-07-31T16:14:42;4.97;;;2.53;;
21101;SDS011;10709;49.006;12.100;2023-07-31T16:17:09;3.83;;;2.40;;
21101;SDS011;10709;49.006;12.100;2023-07-31T16:19:35;4.38;;;2.70;;
21101;SDS011;10709;49.006;12.100;2023-07-31T16:22:03;5.68;;;2.67;;
21101;SDS011;10709;49.006;12.100;2023-07-31T16:24:30;4.57;;;2.47;;
21101;SDS011;10709;49.006;12.100;2023-07-31T16:26:56;4.05;;;2.38;;
21101;SDS011;10709;49.006;12.100;2023-07-31T16:29:23;4.90;;;2.60;;
21101;SDS011;10709;49.006;12.100;2023-07-31T16:31:50;4.15;;;2.00;;